sensor_id;sensor_type;location;lat;lon;timestamp;temperature;humidity
13721;DHT22;6932;51.438;5.470;2022-08-19T00:00:35;26.10;92.30
13721;DHT22;6932;51.438;5.470;2022-08-19T00:03:02;26.10;92.30
13721;DHT22;6932;51.438;5.470;2022-08-19T00:05:29;26.10;92.30
13721;DHT22;6932;51.438;5.470;2022-08-19T00:07:54;26.10;92.40
13721;DHT22;6932;51.438;5.470;2022-08-19T00:10:20;26.10;92.50
13721;DHT22;6932;51.438;5.470;2022-08-19T00:12:47;26.10;92.50
13721;DHT22;6932;51.438;5.470;2022-08-19T00:15:15;26.10;92.50
13721;DHT22;6932;51.438;5.470;2022-08-19T00:17:44;26.10;92.60
13721;DHT22;6932;51.438;5.470;2022-08-19T00:20:12;26.10;92.60
13721;DHT22;6932;51.438;5.470;2022-08-19T00:22:42;26.00;92.60
13721;DHT22;6932;51.438;5.470;2022-08-19T00:25:08;26.00;92.70
13721;DHT22;6932;51.438;5.470;2022-08-19T00:27:34;26.00;92.70
13721;DHT22;6932;51.438;5.470;2022-08-19T00:30:00;26.00;92.80
13721;DHT22;6932;51.438;5.470;2022-08-19T00:32:28;26.00;92.80
13721;DHT22;6932;51.438;5.470;2022-08-19T00:34:53;25.90;92.80
13721;DHT22;6932;51.438;5.470;2022-08-19T00:37:21;25.90;92.80
13721;DHT22;6932;51.438;5.470;2022-08-19T00:39:49;25.90;92.80
13721;DHT22;6932;51.438;5.470;2022-08-19T00:42:17;25.90;92.90
13721;DHT22;6932;51.438;5.470;2022-08-19T00:44:44;25.90;92.90
13721;DHT22;6932;51.438;5.470;2022-08-19T00:47:10;25.80;93.00
13721;DHT22;6932;51.438;5.470;2022-08-19T00:49:41;25.80;93.00
13721;DHT22;6932;51.438;5.470;2022-08-19T00:52:16;25.80;93.10
13721;DHT22;6932;51.438;5.470;2022-08-19T00:54:49;25.70;93.10
13721;DHT22;6932;51.438;5.470;2022-08-19T00:57:18;25.70;93.20
13721;DHT22;6932;51.438;5.470;2022-08-19T00:59:54;25.70;93.20
13721;DHT22;6932;51.438;5.470;2022-08-19T01:02:22;25.70;93.30
13721;DHT22;6932;51.438;5.470;2022-08-19T01:04:48;25.70;93.40
13721;DHT22;6932;51.438;5.470;2022-08-19T01:07:14;25.70;93.40
13721;DHT22;6932;51.438;5.470;2022-08-19T01:09:39;25.60;93.50
13721;DHT22;6932;51.438;5.470;2022-08-19T01:12:05;25.60;93.50
13721;DHT22;6932;51.438;5.470;2022-08-19T01:14:33;25.60;93.50
13721;DHT22;6932;51.438;5.470;2022-08-19T01:17:00;25.60;93.50
13721;DHT22;6932;51.438;5.470;2022-08-19T01:19:29;25.50;93.60
13721;DHT22;6932;51.438;5.470;2022-08-19T01:22:30;25.50;93.70
13721;DHT22;6932;51.438;5.470;2022-08-19T01:25:03;25.50;93.70
13721;DHT22;6932;51.438;5.470;2022-08-19T01:27:40;25.50;93.70
13721;DHT22;6932;51.438;5.470;2022-08-19T01:30:13;25.50;93.80
13721;DHT22;6932;51.438;5.470;2022-08-19T01:32:41;25.50;93.80
13721;DHT22;6932;51.438;5.470;2022-08-19T01:35:09;25.40;93.70
13721;DHT22;6932;51.438;5.470;2022-08-19T01:38:07;25.50;93.80
13721;DHT22;6932;51.438;5.470;2022-08-19T01:40:37;25.30;93.80
13721;DHT22;6932;51.438;5.470;2022-08-19T01:43:05;25.40;93.90
13721;DHT22;6932;51.438;5.470;2022-08-19T01:45:33;25.40;93.90
13721;DHT22;6932;51.438;5.470;2022-08-19T01:48:00;25.30;93.90
13721;DHT22;6932;51.438;5.470;2022-08-19T01:50:26;25.30;94.00
13721;DHT22;6932;51.438;5.470;2022-08-19T01:52:53;25.30;94.00
13721;DHT22;6932;51.438;5.470;2022-08-19T01:55:20;25.30;94.00
13721;DHT22;6932;51.438;5.470;2022-08-19T01:57:52;25.30;94.10
13721;DHT22;6932;51.438;5.470;2022-08-19T02:00:26;25.30;94.20
13721;DHT22;6932;51.438;5.470;2022-08-19T02:02:54;25.30;94.10
13721;DHT22;6932;51.438;5.470;2022-08-19T02:05:20;25.20;94.00
13721;DHT22;6932;51.438;5.470;2022-08-19T02:07:47;25.30;94.00
13721;DHT22;6932;51.438;5.470;2022-08-19T02:10:19;25.30;94.00
13721;DHT22;6932;51.438;5.470;2022-08-19T02:12:47;25.20;93.80
13721;DHT22;6932;51.438;5.470;2022-08-19T02:15:15;25.20;93.70
13721;DHT22;6932;51.438;5.470;2022-08-19T02:17:41;25.20;93.70
13721;DHT22;6932;51.438;5.470;2022-08-19T02:20:08;25.20;93.60
13721;DHT22;6932;51.438;5.470;2022-08-19T02:22:34;25.10;93.60
13721;DHT22;6932;51.438;5.470;2022-08-19T02:25:01;25.20;93.60
13721;DHT22;6932;51.438;5.470;2022-08-19T02:27:27;25.10;93.60
13721;DHT22;6932;51.438;5.470;2022-08-19T02:29:53;25.10;93.50
13721;DHT22;6932;51.438;5.470;2022-08-19T02:32:19;25.10;93.50
13721;DHT22;6932;51.438;5.470;2022-08-19T02:34:46;25.10;93.40
13721;DHT22;6932;51.438;5.470;2022-08-19T02:37:13;25.10;93.30
13721;DHT22;6932;51.438;5.470;2022-08-19T02:39:58;25.10;93.20
13721;DHT22;6932;51.438;5.470;2022-08-19T02:42:24;25.10;93.10
13721;DHT22;6932;51.438;5.470;2022-08-19T02:44:50;25.10;93.10
13721;DHT22;6932;51.438;5.470;2022-08-19T02:47:17;25.00;93.00
13721;DHT22;6932;51.438;5.470;2022-08-19T02:49:45;25.00;93.10
13721;DHT22;6932;51.438;5.470;2022-08-19T02:52:11;25.00;93.10
13721;DHT22;6932;51.438;5.470;2022-08-19T02:54:37;25.00;93.10
13721;DHT22;6932;51.438;5.470;2022-08-19T02:57:04;24.90;93.10
13721;DHT22;6932;51.438;5.470;2022-08-19T02:59:31;25.00;93.10
13721;DHT22;6932;51.438;5.470;2022-08-19T03:01:57;24.90;93.10
13721;DHT22;6932;51.438;5.470;2022-08-19T03:04:23;24.90;93.10
13721;DHT22;6932;51.438;5.470;2022-08-19T03:06:50;24.90;93.10
13721;DHT22;6932;51.438;5.470;2022-08-19T03:09:18;24.90;93.10
13721;DHT22;6932;51.438;5.470;2022-08-19T03:11:45;24.90;93.10
13721;DHT22;6932;51.438;5.470;2022-08-19T03:14:11;24.90;93.10
13721;DHT22;6932;51.438;5.470;2022-08-19T03:16:44;24.90;93.10
13721;DHT22;6932;51.438;5.470;2022-08-19T03:19:15;24.90;93.00
13721;DHT22;6932;51.438;5.470;2022-08-19T03:21:42;24.90;93.10
13721;DHT22;6932;51.438;5.470;2022-08-19T03:24:13;24.80;93.20
13721;DHT22;6932;51.438;5.470;2022-08-19T03:26:46;24.80;93.20
13721;DHT22;6932;51.438;5.470;2022-08-19T03:29:14;24.80;93.20
13721;DHT22;6932;51.438;5.470;2022-08-19T03:31:42;24.80;93.30
13721;DHT22;6932;51.438;5.470;2022-08-19T03:34:13;24.70;93.30
13721;DHT22;6932;51.438;5.470;2022-08-19T03:36:54;24.70;93.40
13721;DHT22;6932;51.438;5.470;2022-08-19T03:39:23;24.70;93.40
13721;DHT22;6932;51.438;5.470;2022-08-19T03:41:51;24.70;93.40
13721;DHT22;6932;51.438;5.470;2022-08-19T03:44:22;24.70;93.50
13721;DHT22;6932;51.438;5.470;2022-08-19T03:46:54;24.70;93.60
13721;DHT22;6932;51.438;5.470;2022-08-19T03:49:23;24.60;93.60
13721;DHT22;6932;51.438;5.470;2022-08-19T03:51:52;24.60;93.70
13721;DHT22;6932;51.438;5.470;2022-08-19T03:54:23;24.60;93.70
13721;DHT22;6932;51.438;5.470;2022-08-19T03:56:52;24.60;93.70
13721;DHT22;6932;51.438;5.470;2022-08-19T03:59:30;24.60;94.10
13721;DHT22;6932;51.438;5.470;2022-08-19T04:02:00;24.50;93.80
13721;DHT22;6932;51.438;5.470;2022-08-19T04:04:28;24.60;93.80
13721;DHT22;6932;51.438;5.470;2022-08-19T04:06:54;24.60;93.80
13721;DHT22;6932;51.438;5.470;2022-08-19T04:09:20;24.50;94.20
13721;DHT22;6932;51.438;5.470;2022-08-19T04:11:50;24.50;93.90
13721;DHT22;6932;51.438;5.470;2022-08-19T04:14:21;24.50;94.00
13721;DHT22;6932;51.438;5.470;2022-08-19T04:16:50;24.50;94.00
13721;DHT22;6932;51.438;5.470;2022-08-19T04:19:19;24.50;94.00
13721;DHT22;6932;51.438;5.470;2022-08-19T04:21:51;24.50;93.90
13721;DHT22;6932;51.438;5.470;2022-08-19T04:24:18;24.50;93.80
13721;DHT22;6932;51.438;5.470;2022-08-19T04:26:46;24.50;93.80
13721;DHT22;6932;51.438;5.470;2022-08-19T04:29:15;24.50;93.80
13721;DHT22;6932;51.438;5.470;2022-08-19T04:31:44;24.50;93.70
13721;DHT22;6932;51.438;5.470;2022-08-19T04:34:13;24.50;93.70
13721;DHT22;6932;51.438;5.470;2022-08-19T04:36:42;24.50;93.70
13721;DHT22;6932;51.438;5.470;2022-08-19T04:39:18;24.50;93.70
13721;DHT22;6932;51.438;5.470;2022-08-19T04:41:47;24.50;93.70
13721;DHT22;6932;51.438;5.470;2022-08-19T04:44:35;24.50;93.60
13721;DHT22;6932;51.438;5.470;2022-08-19T04:47:02;24.50;93.60
13721;DHT22;6932;51.438;5.470;2022-08-19T04:49:30;24.50;93.60
13721;DHT22;6932;51.438;5.470;2022-08-19T04:51:56;24.50;93.70
13721;DHT22;6932;51.438;5.470;2022-08-19T04:54:24;24.40;93.60
13721;DHT22;6932;51.438;5.470;2022-08-19T04:56:52;24.40;93.70
13721;DHT22;6932;51.438;5.470;2022-08-19T04:59:19;24.40;93.70
13721;DHT22;6932;51.438;5.470;2022-08-19T05:01:47;24.40;93.80
13721;DHT22;6932;51.438;5.470;2022-08-19T05:04:17;24.40;93.80
13721;DHT22;6932;51.438;5.470;2022-08-19T05:06:44;24.40;93.80
13721;DHT22;6932;51.438;5.470;2022-08-19T05:09:12;24.40;93.90
13721;DHT22;6932;51.438;5.470;2022-08-19T05:11:38;24.40;93.90
13721;DHT22;6932;51.438;5.470;2022-08-19T05:14:05;24.30;93.90
13721;DHT22;6932;51.438;5.470;2022-08-19T05:16:32;24.30;93.90
13721;DHT22;6932;51.438;5.470;2022-08-19T05:18:57;24.30;93.90
13721;DHT22;6932;51.438;5.470;2022-08-19T05:21:43;24.30;93.90
13721;DHT22;6932;51.438;5.470;2022-08-19T05:24:28;24.30;93.90
13721;DHT22;6932;51.438;5.470;2022-08-19T05:26:55;24.30;94.00
13721;DHT22;6932;51.438;5.470;2022-08-19T05:29:23;24.30;94.30
13721;DHT22;6932;51.438;5.470;2022-08-19T05:31:53;24.30;94.20
13721;DHT22;6932;51.438;5.470;2022-08-19T05:34:22;24.30;94.30
13721;DHT22;6932;51.438;5.470;2022-08-19T05:36:56;24.30;94.30
13721;DHT22;6932;51.438;5.470;2022-08-19T05:39:27;24.30;94.30
13721;DHT22;6932;51.438;5.470;2022-08-19T05:42:02;24.30;94.30
13721;DHT22;6932;51.438;5.470;2022-08-19T05:44:31;24.30;94.30
13721;DHT22;6932;51.438;5.470;2022-08-19T05:47:00;24.40;94.20
13721;DHT22;6932;51.438;5.470;2022-08-19T05:49:29;24.40;94.00
13721;DHT22;6932;51.438;5.470;2022-08-19T05:51:55;24.50;94.00
13721;DHT22;6932;51.438;5.470;2022-08-19T05:54:22;24.50;93.90
13721;DHT22;6932;51.438;5.470;2022-08-19T05:56:50;24.50;93.70
13721;DHT22;6932;51.438;5.470;2022-08-19T05:59:17;24.60;93.70
13721;DHT22;6932;51.438;5.470;2022-08-19T06:01:45;24.60;93.50
13721;DHT22;6932;51.438;5.470;2022-08-19T06:04:12;24.70;93.30
13721;DHT22;6932;51.438;5.470;2022-08-19T06:06:39;24.70;93.30
13721;DHT22;6932;51.438;5.470;2022-08-19T06:09:06;24.80;93.30
13721;DHT22;6932;51.438;5.470;2022-08-19T06:11:45;24.80;93.20
13721;DHT22;6932;51.438;5.470;2022-08-19T06:14:21;24.90;93.00
13721;DHT22;6932;51.438;5.470;2022-08-19T06:16:52;25.00;92.90
13721;DHT22;6932;51.438;5.470;2022-08-19T06:19:20;25.00;92.80
13721;DHT22;6932;51.438;5.470;2022-08-19T06:21:48;25.10;92.80
13721;DHT22;6932;51.438;5.470;2022-08-19T06:24:20;25.20;92.70
13721;DHT22;6932;51.438;5.470;2022-08-19T06:26:50;25.20;92.60
13721;DHT22;6932;51.438;5.470;2022-08-19T06:29:20;25.30;92.50
13721;DHT22;6932;51.438;5.470;2022-08-19T06:31:50;25.40;92.70
13721;DHT22;6932;51.438;5.470;2022-08-19T06:34:19;25.50;92.30
13721;DHT22;6932;51.438;5.470;2022-08-19T06:36:48;25.60;92.10
13721;DHT22;6932;51.438;5.470;2022-08-19T06:39:18;25.70;91.90
13721;DHT22;6932;51.438;5.470;2022-08-19T06:41:50;25.80;91.80
13721;DHT22;6932;51.438;5.470;2022-08-19T06:44:20;25.90;91.60
13721;DHT22;6932;51.438;5.470;2022-08-19T06:46:48;26.00;91.50
13721;DHT22;6932;51.438;5.470;2022-08-19T06:49:15;26.10;91.40
13721;DHT22;6932;51.438;5.470;2022-08-19T06:51:43;26.20;91.30
13721;DHT22;6932;51.438;5.470;2022-08-19T06:54:14;26.20;91.20
13721;DHT22;6932;51.438;5.470;2022-08-19T06:56:40;26.40;91.20
13721;DHT22;6932;51.438;5.470;2022-08-19T06:59:11;26.40;91.00
13721;DHT22;6932;51.438;5.470;2022-08-19T07:01:43;26.50;90.70
13721;DHT22;6932;51.438;5.470;2022-08-19T07:04:13;26.70;90.50
13721;DHT22;6932;51.438;5.470;2022-08-19T07:06:41;26.80;90.40
13721;DHT22;6932;51.438;5.470;2022-08-19T07:09:09;26.80;90.40
13721;DHT22;6932;51.438;5.470;2022-08-19T07:11:36;26.90;90.30
13721;DHT22;6932;51.438;5.470;2022-08-19T07:14:03;26.90;90.20
13721;DHT22;6932;51.438;5.470;2022-08-19T07:16:29;27.00;90.20
13721;DHT22;6932;51.438;5.470;2022-08-19T07:18:56;27.00;90.20
13721;DHT22;6932;51.438;5.470;2022-08-19T07:21:27;27.00;90.20
13721;DHT22;6932;51.438;5.470;2022-08-19T07:23:55;27.10;90.10
13721;DHT22;6932;51.438;5.470;2022-08-19T07:26:30;27.20;90.10
13721;DHT22;6932;51.438;5.470;2022-08-19T07:28:58;27.20;89.90
13721;DHT22;6932;51.438;5.470;2022-08-19T07:31:27;27.20;89.90
13721;DHT22;6932;51.438;5.470;2022-08-19T07:33:55;27.30;90.00
13721;DHT22;6932;51.438;5.470;2022-08-19T07:36:25;27.30;90.00
13721;DHT22;6932;51.438;5.470;2022-08-19T07:38:58;27.40;90.10
13721;DHT22;6932;51.438;5.470;2022-08-19T07:41:27;27.40;89.80
13721;DHT22;6932;51.438;5.470;2022-08-19T07:43:55;27.50;89.40
13721;DHT22;6932;51.438;5.470;2022-08-19T07:46:21;27.60;89.60
13721;DHT22;6932;51.438;5.470;2022-08-19T07:48:48;27.60;89.30
13721;DHT22;6932;51.438;5.470;2022-08-19T07:51:20;27.70;89.40
13721;DHT22;6932;51.438;5.470;2022-08-19T07:53:47;27.70;89.80
13721;DHT22;6932;51.438;5.470;2022-08-19T07:56:17;27.80;89.10
13721;DHT22;6932;51.438;5.470;2022-08-19T07:58:49;27.90;88.40
13721;DHT22;6932;51.438;5.470;2022-08-19T08:01:22;28.00;88.00
13721;DHT22;6932;51.438;5.470;2022-08-19T08:03:51;28.10;87.50
13721;DHT22;6932;51.438;5.470;2022-08-19T08:06:37;28.20;87.20
13721;DHT22;6932;51.438;5.470;2022-08-19T08:09:31;28.20;86.90
13721;DHT22;6932;51.438;5.470;2022-08-19T08:12:15;28.30;87.20
13721;DHT22;6932;51.438;5.470;2022-08-19T08:14:55;28.20;86.70
13721;DHT22;6932;51.438;5.470;2022-08-19T08:17:25;28.20;86.80
13721;DHT22;6932;51.438;5.470;2022-08-19T08:19:53;28.10;86.90
13721;DHT22;6932;51.438;5.470;2022-08-19T08:22:21;28.00;87.00
13721;DHT22;6932;51.438;5.470;2022-08-19T08:25:07;27.80;87.70
13721;DHT22;6932;51.438;5.470;2022-08-19T08:27:40;27.70;88.20
13721;DHT22;6932;51.438;5.470;2022-08-19T08:30:13;27.70;88.30
13721;DHT22;6932;51.438;5.470;2022-08-19T08:32:41;27.70;88.40
13721;DHT22;6932;51.438;5.470;2022-08-19T08:35:10;27.80;87.90
13721;DHT22;6932;51.438;5.470;2022-08-19T08:37:38;27.80;87.40
13721;DHT22;6932;51.438;5.470;2022-08-19T08:40:53;27.80;87.30
13721;DHT22;6932;51.438;5.470;2022-08-19T08:43:33;27.90;87.70
13721;DHT22;6932;51.438;5.470;2022-08-19T08:46:13;27.90;88.00
13721;DHT22;6932;51.438;5.470;2022-08-19T08:48:51;28.00;87.30
13721;DHT22;6932;51.438;5.470;2022-08-19T08:51:37;28.20;86.70
13721;DHT22;6932;51.438;5.470;2022-08-19T08:54:10;28.30;86.20
13721;DHT22;6932;51.438;5.470;2022-08-19T08:56:39;28.40;84.80
13721;DHT22;6932;51.438;5.470;2022-08-19T08:59:16;28.50;84.50
13721;DHT22;6932;51.438;5.470;2022-08-19T09:01:47;28.70;84.00
13721;DHT22;6932;51.438;5.470;2022-08-19T09:04:13;28.80;83.80
13721;DHT22;6932;51.438;5.470;2022-08-19T09:09:40;29.00;83.70
13721;DHT22;6932;51.438;5.470;2022-08-19T09:12:42;29.20;82.90
13721;DHT22;6932;51.438;5.470;2022-08-19T09:15:28;29.40;82.40
13721;DHT22;6932;51.438;5.470;2022-08-19T09:18:02;29.50;81.80
13721;DHT22;6932;51.438;5.470;2022-08-19T09:20:29;29.50;81.50
13721;DHT22;6932;51.438;5.470;2022-08-19T09:22:57;29.50;81.30
13721;DHT22;6932;51.438;5.470;2022-08-19T09:25:24;29.50;81.40
13721;DHT22;6932;51.438;5.470;2022-08-19T09:27:51;29.40;81.20
13721;DHT22;6932;51.438;5.470;2022-08-19T09:30:27;29.30;81.20
13721;DHT22;6932;51.438;5.470;2022-08-19T09:32:56;29.30;81.40
13721;DHT22;6932;51.438;5.470;2022-08-19T09:35:24;29.20;81.10
13721;DHT22;6932;51.438;5.470;2022-08-19T09:37:53;29.10;81.20
13721;DHT22;6932;51.438;5.470;2022-08-19T09:40:20;29.10;81.50
13721;DHT22;6932;51.438;5.470;2022-08-19T09:42:47;29.00;81.40
13721;DHT22;6932;51.438;5.470;2022-08-19T09:45:18;28.90;81.40
13721;DHT22;6932;51.438;5.470;2022-08-19T09:47:47;28.90;81.50
13721;DHT22;6932;51.438;5.470;2022-08-19T09:50:16;28.80;81.70
13721;DHT22;6932;51.438;5.470;2022-08-19T09:52:43;28.70;81.80
13721;DHT22;6932;51.438;5.470;2022-08-19T09:55:10;28.70;81.80
13721;DHT22;6932;51.438;5.470;2022-08-19T09:57:38;28.60;82.00
13721;DHT22;6932;51.438;5.470;2022-08-19T10:00:06;28.50;82.10
13721;DHT22;6932;51.438;5.470;2022-08-19T10:02:34;28.50;82.40
13721;DHT22;6932;51.438;5.470;2022-08-19T10:05:00;28.40;82.60
13721;DHT22;6932;51.438;5.470;2022-08-19T10:07:44;28.40;82.70
13721;DHT22;6932;51.438;5.470;2022-08-19T10:10:10;28.30;82.80
13721;DHT22;6932;51.438;5.470;2022-08-19T10:12:36;28.30;83.10
13721;DHT22;6932;51.438;5.470;2022-08-19T10:15:04;28.30;83.50
13721;DHT22;6932;51.438;5.470;2022-08-19T10:17:31;28.20;83.50
13721;DHT22;6932;51.438;5.470;2022-08-19T10:19:59;28.20;83.60
13721;DHT22;6932;51.438;5.470;2022-08-19T10:22:25;28.20;83.70
13721;DHT22;6932;51.438;5.470;2022-08-19T10:24:51;28.10;83.80
13721;DHT22;6932;51.438;5.470;2022-08-19T10:27:17;28.10;84.10
13721;DHT22;6932;51.438;5.470;2022-08-19T10:29:43;28.10;84.40
13721;DHT22;6932;51.438;5.470;2022-08-19T10:32:09;28.10;84.30
13721;DHT22;6932;51.438;5.470;2022-08-19T10:34:37;28.10;84.40
13721;DHT22;6932;51.438;5.470;2022-08-19T10:37:04;28.10;84.10
13721;DHT22;6932;51.438;5.470;2022-08-19T10:39:33;28.10;84.10
13721;DHT22;6932;51.438;5.470;2022-08-19T10:42:05;28.10;84.20
13721;DHT22;6932;51.438;5.470;2022-08-19T10:44:33;28.10;84.20
13721;DHT22;6932;51.438;5.470;2022-08-19T10:47:01;28.10;84.00
13721;DHT22;6932;51.438;5.470;2022-08-19T10:49:28;28.10;84.00
13721;DHT22;6932;51.438;5.470;2022-08-19T10:51:54;28.10;84.00
13721;DHT22;6932;51.438;5.470;2022-08-19T10:54:39;28.10;84.00
13721;DHT22;6932;51.438;5.470;2022-08-19T10:57:37;28.10;84.40
13721;DHT22;6932;51.438;5.470;2022-08-19T11:00:04;28.10;84.40
13721;DHT22;6932;51.438;5.470;2022-08-19T11:02:30;28.10;84.00
13721;DHT22;6932;51.438;5.470;2022-08-19T11:04:58;28.10;84.10
13721;DHT22;6932;51.438;5.470;2022-08-19T11:07:23;28.20;83.90
13721;DHT22;6932;51.438;5.470;2022-08-19T11:09:50;28.20;83.40
13721;DHT22;6932;51.438;5.470;2022-08-19T11:12:16;28.20;82.90
13721;DHT22;6932;51.438;5.470;2022-08-19T11:14:42;28.30;83.10
13721;DHT22;6932;51.438;5.470;2022-08-19T11:17:08;28.30;83.20
13721;DHT22;6932;51.438;5.470;2022-08-19T11:19:34;28.40;82.70
13721;DHT22;6932;51.438;5.470;2022-08-19T11:22:00;28.40;82.60
13721;DHT22;6932;51.438;5.470;2022-08-19T11:24:29;28.50;82.50
13721;DHT22;6932;51.438;5.470;2022-08-19T11:27:06;28.50;82.30
13721;DHT22;6932;51.438;5.470;2022-08-19T11:29:36;28.60;82.20
13721;DHT22;6932;51.438;5.470;2022-08-19T11:32:06;28.70;82.20
13721;DHT22;6932;51.438;5.470;2022-08-19T11:34:34;28.70;82.10
13721;DHT22;6932;51.438;5.470;2022-08-19T11:37:02;28.80;82.00
13721;DHT22;6932;51.438;5.470;2022-08-19T11:39:31;28.90;82.00
13721;DHT22;6932;51.438;5.470;2022-08-19T11:41:58;28.90;82.00
13721;DHT22;6932;51.438;5.470;2022-08-19T11:44:26;29.00;81.80
13721;DHT22;6932;51.438;5.470;2022-08-19T11:46:53;29.00;81.20
13721;DHT22;6932;51.438;5.470;2022-08-19T11:49:19;29.10;80.50
13721;DHT22;6932;51.438;5.470;2022-08-19T11:51:46;29.10;80.60
13721;DHT22;6932;51.438;5.470;2022-08-19T11:54:14;29.20;80.60
13721;DHT22;6932;51.438;5.470;2022-08-19T11:56:42;29.20;80.50
13721;DHT22;6932;51.438;5.470;2022-08-19T11:59:09;29.20;80.50
13721;DHT22;6932;51.438;5.470;2022-08-19T12:01:36;29.30;81.00
13721;DHT22;6932;51.438;5.470;2022-08-19T12:04:01;29.30;80.70
13721;DHT22;6932;51.438;5.470;2022-08-19T12:06:31;29.30;80.70
13721;DHT22;6932;51.438;5.470;2022-08-19T12:09:02;29.40;80.50
13721;DHT22;6932;51.438;5.470;2022-08-19T12:11:31;29.40;80.10
13721;DHT22;6932;51.438;5.470;2022-08-19T12:13:57;29.50;79.90
13721;DHT22;6932;51.438;5.470;2022-08-19T12:16:26;29.50;79.80
13721;DHT22;6932;51.438;5.470;2022-08-19T12:18:54;29.60;79.90
13721;DHT22;6932;51.438;5.470;2022-08-19T12:21:25;29.60;80.00
13721;DHT22;6932;51.438;5.470;2022-08-19T12:23:56;29.50;79.60
13721;DHT22;6932;51.438;5.470;2022-08-19T12:26:24;29.60;79.90
13721;DHT22;6932;51.438;5.470;2022-08-19T12:28:52;29.60;79.90
13721;DHT22;6932;51.438;5.470;2022-08-19T12:31:18;29.60;79.60
13721;DHT22;6932;51.438;5.470;2022-08-19T12:33:45;29.60;79.30
13721;DHT22;6932;51.438;5.470;2022-08-19T12:36:14;29.60;79.20
13721;DHT22;6932;51.438;5.470;2022-08-19T12:38:41;29.60;79.40
13721;DHT22;6932;51.438;5.470;2022-08-19T12:41:11;29.60;79.60
13721;DHT22;6932;51.438;5.470;2022-08-19T12:43:40;29.60;79.60
13721;DHT22;6932;51.438;5.470;2022-08-19T12:46:07;29.60;79.60
13721;DHT22;6932;51.438;5.470;2022-08-19T12:48:34;29.60;79.70
13721;DHT22;6932;51.438;5.470;2022-08-19T12:51:05;29.60;80.00
13721;DHT22;6932;51.438;5.470;2022-08-19T12:53:32;29.50;80.10
13721;DHT22;6932;51.438;5.470;2022-08-19T12:55:58;29.60;80.20
13721;DHT22;6932;51.438;5.470;2022-08-19T12:58:25;29.50;80.40
13721;DHT22;6932;51.438;5.470;2022-08-19T13:00:52;29.50;80.70
13721;DHT22;6932;51.438;5.470;2022-08-19T13:03:18;29.50;81.10
13721;DHT22;6932;51.438;5.470;2022-08-19T13:05:43;29.50;81.30
13721;DHT22;6932;51.438;5.470;2022-08-19T13:08:09;29.60;81.20
13721;DHT22;6932;51.438;5.470;2022-08-19T13:10:36;29.60;81.00
13721;DHT22;6932;51.438;5.470;2022-08-19T13:13:07;29.60;81.20
13721;DHT22;6932;51.438;5.470;2022-08-19T13:15:37;29.70;81.30
13721;DHT22;6932;51.438;5.470;2022-08-19T13:18:06;29.80;81.50
13721;DHT22;6932;51.438;5.470;2022-08-19T13:20:35;29.80;81.30
13721;DHT22;6932;51.438;5.470;2022-08-19T13:23:02;29.90;81.10
13721;DHT22;6932;51.438;5.470;2022-08-19T13:25:29;29.90;81.10
13721;DHT22;6932;51.438;5.470;2022-08-19T13:27:54;30.00;81.10
13721;DHT22;6932;51.438;5.470;2022-08-19T13:30:21;30.00;80.70
13721;DHT22;6932;51.438;5.470;2022-08-19T13:33:06;30.00;80.40
13721;DHT22;6932;51.438;5.470;2022-08-19T13:35:51;30.10;80.70
13721;DHT22;6932;51.438;5.470;2022-08-19T13:38:23;30.00;80.80
13721;DHT22;6932;51.438;5.470;2022-08-19T13:40:52;30.10;81.10
13721;DHT22;6932;51.438;5.470;2022-08-19T13:43:20;30.00;81.00
13721;DHT22;6932;51.438;5.470;2022-08-19T13:45:52;30.00;80.80
13721;DHT22;6932;51.438;5.470;2022-08-19T13:48:20;30.00;80.70
13721;DHT22;6932;51.438;5.470;2022-08-19T13:50:46;30.10;80.80
13721;DHT22;6932;51.438;5.470;2022-08-19T13:53:13;30.00;80.40
13721;DHT22;6932;51.438;5.470;2022-08-19T13:55:41;30.10;80.50
13721;DHT22;6932;51.438;5.470;2022-08-19T13:58:09;30.10;80.60
13721;DHT22;6932;51.438;5.470;2022-08-19T14:00:38;30.10;80.70
13721;DHT22;6932;51.438;5.470;2022-08-19T14:03:06;30.10;80.40
13721;DHT22;6932;51.438;5.470;2022-08-19T14:05:32;30.20;80.50
13721;DHT22;6932;51.438;5.470;2022-08-19T14:07:58;30.20;80.60
13721;DHT22;6932;51.438;5.470;2022-08-19T14:10:25;30.20;80.70
13721;DHT22;6932;51.438;5.470;2022-08-19T14:12:54;30.20;80.90
13721;DHT22;6932;51.438;5.470;2022-08-19T14:15:21;30.20;80.70
13721;DHT22;6932;51.438;5.470;2022-08-19T14:17:48;30.20;80.60
13721;DHT22;6932;51.438;5.470;2022-08-19T14:20:15;30.20;80.70
13721;DHT22;6932;51.438;5.470;2022-08-19T14:22:42;30.20;80.70
13721;DHT22;6932;51.438;5.470;2022-08-19T14:25:13;30.20;80.50
13721;DHT22;6932;51.438;5.470;2022-08-19T14:27:42;30.20;80.50
13721;DHT22;6932;51.438;5.470;2022-08-19T14:30:11;30.20;80.20
13721;DHT22;6932;51.438;5.470;2022-08-19T14:32:38;30.20;80.00
13721;DHT22;6932;51.438;5.470;2022-08-19T14:35:05;30.20;79.80
13721;DHT22;6932;51.438;5.470;2022-08-19T14:37:33;30.20;79.80
13721;DHT22;6932;51.438;5.470;2022-08-19T14:40:00;30.20;79.80
13721;DHT22;6932;51.438;5.470;2022-08-19T14:42:26;30.30;80.00
13721;DHT22;6932;51.438;5.470;2022-08-19T14:44:51;30.30;79.80
13721;DHT22;6932;51.438;5.470;2022-08-19T14:47:17;30.30;79.40
13721;DHT22;6932;51.438;5.470;2022-08-19T14:49:43;30.30;79.30
13721;DHT22;6932;51.438;5.470;2022-08-19T14:52:09;30.30;79.70
13721;DHT22;6932;51.438;5.470;2022-08-19T14:54:34;30.40;79.00
13721;DHT22;6932;51.438;5.470;2022-08-19T14:57:00;30.40;79.00
13721;DHT22;6932;51.438;5.470;2022-08-19T14:59:26;30.40;79.00
13721;DHT22;6932;51.438;5.470;2022-08-19T15:01:52;30.40;78.50
13721;DHT22;6932;51.438;5.470;2022-08-19T15:04:18;30.40;78.30
13721;DHT22;6932;51.438;5.470;2022-08-19T15:06:44;30.40;78.50
13721;DHT22;6932;51.438;5.470;2022-08-19T15:09:10;30.40;78.60
13721;DHT22;6932;51.438;5.470;2022-08-19T15:11:36;30.40;78.50
13721;DHT22;6932;51.438;5.470;2022-08-19T15:14:03;30.40;78.50
13721;DHT22;6932;51.438;5.470;2022-08-19T15:16:32;30.40;78.50
13721;DHT22;6932;51.438;5.470;2022-08-19T15:18:59;30.40;78.50
13721;DHT22;6932;51.438;5.470;2022-08-19T15:21:26;30.40;78.30
13721;DHT22;6932;51.438;5.470;2022-08-19T15:23:56;30.40;78.30
13721;DHT22;6932;51.438;5.470;2022-08-19T15:26:23;30.30;78.30
13721;DHT22;6932;51.438;5.470;2022-08-19T15:28:51;30.30;78.40
13721;DHT22;6932;51.438;5.470;2022-08-19T15:31:20;30.30;78.20
13721;DHT22;6932;51.438;5.470;2022-08-19T15:33:48;30.30;78.10
13721;DHT22;6932;51.438;5.470;2022-08-19T15:36:14;30.30;78.20
13721;DHT22;6932;51.438;5.470;2022-08-19T15:38:41;30.30;78.40
13721;DHT22;6932;51.438;5.470;2022-08-19T15:41:21;30.30;78.60
13721;DHT22;6932;51.438;5.470;2022-08-19T15:43:59;30.30;78.80
13721;DHT22;6932;51.438;5.470;2022-08-19T15:46:30;30.30;78.80
13721;DHT22;6932;51.438;5.470;2022-08-19T15:48:58;30.30;78.90
13721;DHT22;6932;51.438;5.470;2022-08-19T15:51:25;30.30;79.60
13721;DHT22;6932;51.438;5.470;2022-08-19T15:53:56;30.20;79.00
13721;DHT22;6932;51.438;5.470;2022-08-19T15:56:23;30.30;79.20
13721;DHT22;6932;51.438;5.470;2022-08-19T15:58:48;30.20;79.10
13721;DHT22;6932;51.438;5.470;2022-08-19T16:01:33;30.20;79.30